Upper Lawn, Pennsylvania
Current Conditions -  °F | °C
As of 8:58 PM on Friday 28 Nov 2014 (Local Time) from KMUI Reporting Station
Clear Clear  
Wind Chill: 18°   Ceiling: Unl
Heat Index: 25°   Visibility: 10mi
Dew Point: 16°   Wind: 6mph
Humidity: 67%   Direction: 190°S
Pressure: 30.27"   Gusts: NA
Location:  40.2909°N, 76.5834°W
Report Text: KMUI 290158Z AUTO 19005KT 10SM CLR M04/M09 A3027 RMK AO2 SLP260 T10381091 $
Loading
Personal Weather Stations






























Interactive Weather Map New forecast layout! Learn more

10-Day Weather Forecast

Advertisements
Track Severe Weather on mobile